sensor_id;sensor_type;location;lat;lon;timestamp;P1;durP1;ratioP1;P2;durP2;ratioP2
19127;SDS011;9696;53.686;10.094;2023-04-08T00:00:07;9.50;;;5.47;;
19127;SDS011;9696;53.686;10.094;2023-04-08T00:02:38;11.37;;;5.30;;
19127;SDS011;9696;53.686;10.094;2023-04-08T00:05:09;14.67;;;6.07;;
19127;SDS011;9696;53.686;10.094;2023-04-08T00:07:39;12.77;;;5.73;;
19127;SDS011;9696;53.686;10.094;2023-04-08T00:10:08;14.57;;;6.17;;
19127;SDS011;9696;53.686;10.094;2023-04-08T00:12:37;19.67;;;6.03;;
19127;SDS011;9696;53.686;10.094;2023-04-08T00:15:07;9.93;;;5.63;;
19127;SDS011;9696;53.686;10.094;2023-04-08T00:17:36;12.83;;;6.20;;
19127;SDS011;9696;53.686;10.094;2023-04-08T00:20:06;10.60;;;5.40;;
19127;SDS011;9696;53.686;10.094;2023-04-08T00:22:36;15.57;;;6.00;;
19127;SDS011;9696;53.686;10.094;2023-04-08T00:25:07;10.93;;;5.80;;
19127;SDS011;9696;53.686;10.094;2023-04-08T00:27:36;11.57;;;5.90;;
19127;SDS011;9696;53.686;10.094;2023-04-08T00:30:06;11.47;;;5.83;;
19127;SDS011;9696;53.686;10.094;2023-04-08T00:32:36;11.97;;;5.50;;
19127;SDS011;9696;53.686;10.094;2023-04-08T00:35:06;11.87;;;5.43;;
19127;SDS011;9696;53.686;10.094;2023-04-08T00:37:36;14.60;;;6.60;;
19127;SDS011;9696;53.686;10.094;2023-04-08T00:40:07;11.33;;;6.20;;
19127;SDS011;9696;53.686;10.094;2023-04-08T00:42:36;11.10;;;5.13;;
19127;SDS011;9696;53.686;10.094;2023-04-08T00:45:06;13.10;;;6.13;;
19127;SDS011;9696;53.686;10.094;2023-04-08T00:47:36;13.53;;;5.80;;
19127;SDS011;9696;53.686;10.094;2023-04-08T00:50:07;18.67;;;6.70;;
19127;SDS011;9696;53.686;10.094;2023-04-08T00:52:37;13.63;;;6.53;;
19127;SDS011;9696;53.686;10.094;2023-04-08T00:55:08;16.70;;;7.10;;
19127;SDS011;9696;53.686;10.094;2023-04-08T00:57:37;16.30;;;6.20;;
19127;SDS011;9696;53.686;10.094;2023-04-08T01:00:07;16.27;;;6.53;;
19127;SDS011;9696;53.686;10.094;2023-04-08T01:02:38;19.20;;;7.03;;
19127;SDS011;9696;53.686;10.094;2023-04-08T01:05:13;17.60;;;6.47;;
19127;SDS011;9696;53.686;10.094;2023-04-08T01:07:48;14.60;;;7.13;;
19127;SDS011;9696;53.686;10.094;2023-04-08T01:10:20;12.33;;;6.37;;
19127;SDS011;9696;53.686;10.094;2023-04-08T01:12:54;14.07;;;6.23;;
19127;SDS011;9696;53.686;10.094;2023-04-08T01:15:25;13.20;;;5.83;;
19127;SDS011;9696;53.686;10.094;2023-04-08T01:17:56;18.33;;;7.27;;
19127;SDS011;9696;53.686;10.094;2023-04-08T01:20:28;15.07;;;6.73;;
19127;SDS011;9696;53.686;10.094;2023-04-08T01:23:01;19.83;;;7.23;;
19127;SDS011;9696;53.686;10.094;2023-04-08T01:28:16;10.93;;;5.60;;
19127;SDS011;9696;53.686;10.094;2023-04-08T01:30:48;11.87;;;6.03;;
19127;SDS011;9696;53.686;10.094;2023-04-08T01:33:18;14.40;;;6.60;;
19127;SDS011;9696;53.686;10.094;2023-04-08T01:35:48;14.93;;;6.93;;
19127;SDS011;9696;53.686;10.094;2023-04-08T01:38:21;11.00;;;5.63;;
19127;SDS011;9696;53.686;10.094;2023-04-08T01:40:54;13.40;;;6.27;;
19127;SDS011;9696;53.686;10.094;2023-04-08T01:43:24;14.33;;;7.57;;
19127;SDS011;9696;53.686;10.094;2023-04-08T01:45:55;17.43;;;6.47;;
19127;SDS011;9696;53.686;10.094;2023-04-08T01:48:25;12.63;;;5.30;;
19127;SDS011;9696;53.686;10.094;2023-04-08T01:50:55;11.73;;;6.10;;
19127;SDS011;9696;53.686;10.094;2023-04-08T01:53:25;13.87;;;6.73;;
19127;SDS011;9696;53.686;10.094;2023-04-08T01:55:56;15.73;;;7.00;;
19127;SDS011;9696;53.686;10.094;2023-04-08T01:58:31;9.77;;;5.43;;
19127;SDS011;9696;53.686;10.094;2023-04-08T02:01:05;13.97;;;6.87;;
19127;SDS011;9696;53.686;10.094;2023-04-08T02:03:38;10.93;;;5.77;;
19127;SDS011;9696;53.686;10.094;2023-04-08T02:06:12;13.03;;;6.43;;
19127;SDS011;9696;53.686;10.094;2023-04-08T02:08:42;12.53;;;5.73;;
19127;SDS011;9696;53.686;10.094;2023-04-08T02:11:13;14.93;;;6.23;;
19127;SDS011;9696;53.686;10.094;2023-04-08T02:13:42;15.30;;;5.20;;
19127;SDS011;9696;53.686;10.094;2023-04-08T02:16:13;12.77;;;5.90;;
19127;SDS011;9696;53.686;10.094;2023-04-08T02:18:50;11.93;;;6.30;;
19127;SDS011;9696;53.686;10.094;2023-04-08T02:21:26;12.23;;;6.27;;
19127;SDS011;9696;53.686;10.094;2023-04-08T02:24:03;11.57;;;6.10;;
19127;SDS011;9696;53.686;10.094;2023-04-08T02:26:36;11.57;;;5.63;;
19127;SDS011;9696;53.686;10.094;2023-04-08T02:29:06;12.87;;;6.73;;
19127;SDS011;9696;53.686;10.094;2023-04-08T02:31:40;11.47;;;6.63;;
19127;SDS011;9696;53.686;10.094;2023-04-08T02:34:13;11.53;;;6.97;;
19127;SDS011;9696;53.686;10.094;2023-04-08T02:36:42;14.67;;;7.17;;
19127;SDS011;9696;53.686;10.094;2023-04-08T02:39:15;15.40;;;7.40;;
19127;SDS011;9696;53.686;10.094;2023-04-08T02:41:49;14.97;;;7.47;;
19127;SDS011;9696;53.686;10.094;2023-04-08T02:44:20;19.37;;;7.50;;
19127;SDS011;9696;53.686;10.094;2023-04-08T02:46:49;15.57;;;6.37;;
19127;SDS011;9696;53.686;10.094;2023-04-08T02:49:18;14.93;;;7.07;;
19127;SDS011;9696;53.686;10.094;2023-04-08T02:51:47;15.33;;;7.80;;
19127;SDS011;9696;53.686;10.094;2023-04-08T02:54:17;15.87;;;7.43;;
19127;SDS011;9696;53.686;10.094;2023-04-08T02:56:46;14.63;;;7.20;;
19127;SDS011;9696;53.686;10.094;2023-04-08T02:59:17;18.97;;;7.93;;
19127;SDS011;9696;53.686;10.094;2023-04-08T03:01:46;13.77;;;6.73;;
19127;SDS011;9696;53.686;10.094;2023-04-08T03:04:15;16.27;;;6.77;;
19127;SDS011;9696;53.686;10.094;2023-04-08T03:06:44;21.60;;;7.20;;
19127;SDS011;9696;53.686;10.094;2023-04-08T03:09:13;20.53;;;8.03;;
19127;SDS011;9696;53.686;10.094;2023-04-08T03:11:42;14.20;;;7.60;;
19127;SDS011;9696;53.686;10.094;2023-04-08T03:14:19;17.20;;;7.37;;
19127;SDS011;9696;53.686;10.094;2023-04-08T03:16:48;15.73;;;7.27;;
19127;SDS011;9696;53.686;10.094;2023-04-08T03:19:17;16.37;;;7.53;;
19127;SDS011;9696;53.686;10.094;2023-04-08T03:21:47;15.90;;;7.87;;
19127;SDS011;9696;53.686;10.094;2023-04-08T03:24:16;25.97;;;9.83;;
19127;SDS011;9696;53.686;10.094;2023-04-08T03:26:45;21.30;;;8.40;;
19127;SDS011;9696;53.686;10.094;2023-04-08T03:29:14;17.50;;;8.70;;
19127;SDS011;9696;53.686;10.094;2023-04-08T03:31:45;18.47;;;7.90;;
19127;SDS011;9696;53.686;10.094;2023-04-08T03:34:14;17.10;;;8.13;;
19127;SDS011;9696;53.686;10.094;2023-04-08T03:36:43;21.77;;;9.73;;
19127;SDS011;9696;53.686;10.094;2023-04-08T03:39:12;17.93;;;8.20;;
19127;SDS011;9696;53.686;10.094;2023-04-08T03:41:41;21.33;;;9.70;;
19127;SDS011;9696;53.686;10.094;2023-04-08T03:44:10;21.93;;;10.47;;
19127;SDS011;9696;53.686;10.094;2023-04-08T03:46:40;26.13;;;9.67;;
19127;SDS011;9696;53.686;10.094;2023-04-08T03:49:10;22.83;;;9.50;;
19127;SDS011;9696;53.686;10.094;2023-04-08T03:51:40;23.77;;;9.33;;
19127;SDS011;9696;53.686;10.094;2023-04-08T03:54:09;21.33;;;9.57;;
19127;SDS011;9696;53.686;10.094;2023-04-08T03:56:38;26.53;;;10.27;;
19127;SDS011;9696;53.686;10.094;2023-04-08T03:59:07;17.57;;;8.33;;
19127;SDS011;9696;53.686;10.094;2023-04-08T04:01:36;14.87;;;8.07;;
19127;SDS011;9696;53.686;10.094;2023-04-08T04:04:07;17.17;;;8.30;;
19127;SDS011;9696;53.686;10.094;2023-04-08T04:06:38;19.27;;;7.60;;
19127;SDS011;9696;53.686;10.094;2023-04-08T04:09:07;25.77;;;9.50;;
19127;SDS011;9696;53.686;10.094;2023-04-08T04:11:37;23.70;;;8.63;;
19127;SDS011;9696;53.686;10.094;2023-04-08T04:14:06;21.17;;;9.10;;
19127;SDS011;9696;53.686;10.094;2023-04-08T04:16:35;17.67;;;8.87;;
19127;SDS011;9696;53.686;10.094;2023-04-08T04:19:04;19.77;;;8.53;;
19127;SDS011;9696;53.686;10.094;2023-04-08T04:21:33;19.83;;;8.47;;
19127;SDS011;9696;53.686;10.094;2023-04-08T04:24:04;18.37;;;8.60;;
19127;SDS011;9696;53.686;10.094;2023-04-08T04:26:33;28.03;;;8.70;;
19127;SDS011;9696;53.686;10.094;2023-04-08T04:29:02;22.80;;;9.73;;
19127;SDS011;9696;53.686;10.094;2023-04-08T04:31:31;18.73;;;8.43;;
19127;SDS011;9696;53.686;10.094;2023-04-08T04:34:00;20.90;;;9.67;;
19127;SDS011;9696;53.686;10.094;2023-04-08T04:36:30;25.03;;;8.97;;
19127;SDS011;9696;53.686;10.094;2023-04-08T04:38:59;19.50;;;8.37;;
19127;SDS011;9696;53.686;10.094;2023-04-08T04:41:29;27.33;;;8.87;;
19127;SDS011;9696;53.686;10.094;2023-04-08T04:43:58;20.47;;;8.93;;
19127;SDS011;9696;53.686;10.094;2023-04-08T04:46:28;23.93;;;8.93;;
19127;SDS011;9696;53.686;10.094;2023-04-08T04:48:57;24.03;;;8.87;;
19127;SDS011;9696;53.686;10.094;2023-04-08T04:51:26;24.00;;;10.37;;
19127;SDS011;9696;53.686;10.094;2023-04-08T04:53:57;29.20;;;10.07;;
19127;SDS011;9696;53.686;10.094;2023-04-08T04:56:27;23.67;;;9.57;;
19127;SDS011;9696;53.686;10.094;2023-04-08T04:58:57;21.27;;;9.97;;
19127;SDS011;9696;53.686;10.094;2023-04-08T05:01:26;22.33;;;10.37;;
19127;SDS011;9696;53.686;10.094;2023-04-08T05:03:55;20.37;;;9.67;;
19127;SDS011;9696;53.686;10.094;2023-04-08T05:06:25;25.20;;;9.27;;
19127;SDS011;9696;53.686;10.094;2023-04-08T05:08:54;23.53;;;9.43;;
19127;SDS011;9696;53.686;10.094;2023-04-08T05:11:23;20.43;;;9.40;;
19127;SDS011;9696;53.686;10.094;2023-04-08T05:13:52;26.23;;;10.03;;
19127;SDS011;9696;53.686;10.094;2023-04-08T05:16:23;22.90;;;10.03;;
19127;SDS011;9696;53.686;10.094;2023-04-08T05:18:52;23.47;;;10.77;;
19127;SDS011;9696;53.686;10.094;2023-04-08T05:21:22;24.30;;;10.57;;
19127;SDS011;9696;53.686;10.094;2023-04-08T05:23:51;21.20;;;10.47;;
19127;SDS011;9696;53.686;10.094;2023-04-08T05:26:21;24.07;;;10.93;;
19127;SDS011;9696;53.686;10.094;2023-04-08T05:28:50;28.07;;;10.37;;
19127;SDS011;9696;53.686;10.094;2023-04-08T05:31:19;23.30;;;9.50;;
19127;SDS011;9696;53.686;10.094;2023-04-08T05:33:50;24.20;;;8.70;;
19127;SDS011;9696;53.686;10.094;2023-04-08T05:36:19;20.87;;;9.87;;
19127;SDS011;9696;53.686;10.094;2023-04-08T05:38:48;18.77;;;8.40;;
19127;SDS011;9696;53.686;10.094;2023-04-08T05:41:17;22.27;;;9.00;;
19127;SDS011;9696;53.686;10.094;2023-04-08T05:43:47;17.03;;;7.87;;
19127;SDS011;9696;53.686;10.094;2023-04-08T05:46:16;16.93;;;8.70;;
19127;SDS011;9696;53.686;10.094;2023-04-08T05:48:45;16.83;;;8.07;;
19127;SDS011;9696;53.686;10.094;2023-04-08T05:51:16;24.90;;;8.07;;
19127;SDS011;9696;53.686;10.094;2023-04-08T05:53:45;19.70;;;8.93;;
19127;SDS011;9696;53.686;10.094;2023-04-08T05:56:14;20.43;;;8.53;;
19127;SDS011;9696;53.686;10.094;2023-04-08T05:58:43;23.13;;;8.57;;
19127;SDS011;9696;53.686;10.094;2023-04-08T06:01:12;25.27;;;9.20;;
19127;SDS011;9696;53.686;10.094;2023-04-08T06:03:41;21.70;;;9.37;;
19127;SDS011;9696;53.686;10.094;2023-04-08T06:06:11;19.90;;;8.90;;
19127;SDS011;9696;53.686;10.094;2023-04-08T06:08:42;25.43;;;10.67;;
19127;SDS011;9696;53.686;10.094;2023-04-08T06:11:18;23.23;;;8.73;;
19127;SDS011;9696;53.686;10.094;2023-04-08T06:13:49;21.90;;;9.33;;
19127;SDS011;9696;53.686;10.094;2023-04-08T06:16:19;18.17;;;7.30;;
19127;SDS011;9696;53.686;10.094;2023-04-08T06:18:48;21.00;;;8.30;;
19127;SDS011;9696;53.686;10.094;2023-04-08T06:21:18;17.33;;;7.50;;
19127;SDS011;9696;53.686;10.094;2023-04-08T06:23:48;16.03;;;8.00;;
19127;SDS011;9696;53.686;10.094;2023-04-08T06:26:18;17.73;;;7.63;;
19127;SDS011;9696;53.686;10.094;2023-04-08T06:28:47;20.60;;;8.17;;
19127;SDS011;9696;53.686;10.094;2023-04-08T06:31:16;20.57;;;8.33;;
19127;SDS011;9696;53.686;10.094;2023-04-08T06:33:46;17.97;;;8.10;;
19127;SDS011;9696;53.686;10.094;2023-04-08T06:36:21;15.43;;;7.93;;
19127;SDS011;9696;53.686;10.094;2023-04-08T06:38:51;16.57;;;7.37;;
19127;SDS011;9696;53.686;10.094;2023-04-08T06:41:21;17.80;;;7.40;;
19127;SDS011;9696;53.686;10.094;2023-04-08T06:44:01;20.13;;;7.40;;
19127;SDS011;9696;53.686;10.094;2023-04-08T06:46:31;14.70;;;6.97;;
19127;SDS011;9696;53.686;10.094;2023-04-08T06:49:17;20.77;;;8.40;;
19127;SDS011;9696;53.686;10.094;2023-04-08T06:51:52;14.60;;;6.17;;
19127;SDS011;9696;53.686;10.094;2023-04-08T06:54:23;19.73;;;8.60;;
19127;SDS011;9696;53.686;10.094;2023-04-08T06:56:52;17.10;;;8.37;;
19127;SDS011;9696;53.686;10.094;2023-04-08T06:59:21;19.87;;;8.80;;
19127;SDS011;9696;53.686;10.094;2023-04-08T07:01:50;21.07;;;8.17;;
19127;SDS011;9696;53.686;10.094;2023-04-08T07:04:20;14.87;;;7.60;;
19127;SDS011;9696;53.686;10.094;2023-04-08T07:06:49;20.17;;;8.77;;
19127;SDS011;9696;53.686;10.094;2023-04-08T07:09:18;21.13;;;7.67;;
19127;SDS011;9696;53.686;10.094;2023-04-08T07:11:49;17.67;;;8.20;;
19127;SDS011;9696;53.686;10.094;2023-04-08T07:14:18;18.00;;;8.37;;
19127;SDS011;9696;53.686;10.094;2023-04-08T07:16:47;13.93;;;7.10;;
19127;SDS011;9696;53.686;10.094;2023-04-08T07:19:17;15.00;;;8.00;;
19127;SDS011;9696;53.686;10.094;2023-04-08T07:21:46;19.67;;;6.93;;
19127;SDS011;9696;53.686;10.094;2023-04-08T07:24:16;14.97;;;7.27;;
19127;SDS011;9696;53.686;10.094;2023-04-08T07:26:45;15.80;;;7.40;;
19127;SDS011;9696;53.686;10.094;2023-04-08T07:29:16;20.67;;;7.40;;
19127;SDS011;9696;53.686;10.094;2023-04-08T07:31:45;14.07;;;7.40;;
19127;SDS011;9696;53.686;10.094;2023-04-08T07:34:14;15.03;;;6.70;;
19127;SDS011;9696;53.686;10.094;2023-04-08T07:36:43;16.87;;;6.67;;
19127;SDS011;9696;53.686;10.094;2023-04-08T07:39:13;14.33;;;7.70;;
19127;SDS011;9696;53.686;10.094;2023-04-08T07:41:42;14.20;;;7.07;;
19127;SDS011;9696;53.686;10.094;2023-04-08T07:44:11;14.40;;;6.60;;
19127;SDS011;9696;53.686;10.094;2023-04-08T07:46:44;22.03;;;6.97;;
19127;SDS011;9696;53.686;10.094;2023-04-08T07:49:17;13.67;;;6.97;;
19127;SDS011;9696;53.686;10.094;2023-04-08T07:51:46;15.67;;;6.67;;
19127;SDS011;9696;53.686;10.094;2023-04-08T07:54:15;19.47;;;6.77;;
19127;SDS011;9696;53.686;10.094;2023-04-08T07:56:44;19.00;;;7.13;;
19127;SDS011;9696;53.686;10.094;2023-04-08T07:59:13;18.90;;;8.40;;
19127;SDS011;9696;53.686;10.094;2023-04-08T08:01:44;17.20;;;7.07;;
19127;SDS011;9696;53.686;10.094;2023-04-08T08:04:13;13.63;;;6.80;;
19127;SDS011;9696;53.686;10.094;2023-04-08T08:06:42;19.60;;;7.97;;
19127;SDS011;9696;53.686;10.094;2023-04-08T08:09:12;15.63;;;6.60;;
19127;SDS011;9696;53.686;10.094;2023-04-08T08:11:41;15.87;;;7.03;;
19127;SDS011;9696;53.686;10.094;2023-04-08T08:14:10;15.50;;;6.70;;
19127;SDS011;9696;53.686;10.094;2023-04-08T08:16:39;18.43;;;7.20;;
19127;SDS011;9696;53.686;10.094;2023-04-08T08:19:11;14.00;;;7.10;;
19127;SDS011;9696;53.686;10.094;2023-04-08T08:21:40;15.60;;;7.40;;
19127;SDS011;9696;53.686;10.094;2023-04-08T08:24:09;13.83;;;6.83;;
19127;SDS011;9696;53.686;10.094;2023-04-08T08:26:39;15.30;;;7.13;;
19127;SDS011;9696;53.686;10.094;2023-04-08T08:29:08;18.07;;;7.97;;
19127;SDS011;9696;53.686;10.094;2023-04-08T08:31:44;13.20;;;6.53;;
19127;SDS011;9696;53.686;10.094;2023-04-08T08:34:15;16.30;;;7.53;;
19127;SDS011;9696;53.686;10.094;2023-04-08T08:36:45;14.97;;;6.60;;
19127;SDS011;9696;53.686;10.094;2023-04-08T08:39:14;16.27;;;7.47;;
19127;SDS011;9696;53.686;10.094;2023-04-08T08:41:43;12.83;;;6.60;;
19127;SDS011;9696;53.686;10.094;2023-04-08T08:44:12;18.17;;;7.37;;
19127;SDS011;9696;53.686;10.094;2023-04-08T08:46:42;13.43;;;6.57;;
19127;SDS011;9696;53.686;10.094;2023-04-08T08:49:12;15.80;;;7.10;;
19127;SDS011;9696;53.686;10.094;2023-04-08T08:51:43;13.03;;;6.30;;
19127;SDS011;9696;53.686;10.094;2023-04-08T08:54:14;18.77;;;6.40;;
19127;SDS011;9696;53.686;10.094;2023-04-08T08:56:43;11.90;;;5.77;;
19127;SDS011;9696;53.686;10.094;2023-04-08T08:59:12;18.40;;;5.87;;
19127;SDS011;9696;53.686;10.094;2023-04-08T09:01:41;14.00;;;6.80;;
19127;SDS011;9696;53.686;10.094;2023-04-08T09:04:12;13.77;;;5.93;;
19127;SDS011;9696;53.686;10.094;2023-04-08T09:06:45;16.37;;;7.73;;
19127;SDS011;9696;53.686;10.094;2023-04-08T09:09:16;14.20;;;6.53;;
19127;SDS011;9696;53.686;10.094;2023-04-08T09:11:45;14.90;;;6.67;;
19127;SDS011;9696;53.686;10.094;2023-04-08T09:14:18;14.63;;;6.93;;
19127;SDS011;9696;53.686;10.094;2023-04-08T09:16:48;16.73;;;7.50;;
19127;SDS011;9696;53.686;10.094;2023-04-08T09:19:18;17.50;;;8.23;;
19127;SDS011;9696;53.686;10.094;2023-04-08T09:24:34;20.43;;;7.77;;
19127;SDS011;9696;53.686;10.094;2023-04-08T09:27:04;16.83;;;8.63;;
19127;SDS011;9696;53.686;10.094;2023-04-08T09:29:33;19.40;;;8.47;;
19127;SDS011;9696;53.686;10.094;2023-04-08T09:32:05;15.23;;;7.93;;
19127;SDS011;9696;53.686;10.094;2023-04-08T09:34:35;18.00;;;7.90;;
19127;SDS011;9696;53.686;10.094;2023-04-08T09:37:05;16.03;;;7.87;;
19127;SDS011;9696;53.686;10.094;2023-04-08T09:39:34;17.57;;;9.00;;
19127;SDS011;9696;53.686;10.094;2023-04-08T09:42:03;15.50;;;8.27;;
19127;SDS011;9696;53.686;10.094;2023-04-08T09:44:37;17.90;;;8.23;;
19127;SDS011;9696;53.686;10.094;2023-04-08T09:47:13;13.63;;;7.67;;
19127;SDS011;9696;53.686;10.094;2023-04-08T09:49:49;20.77;;;9.53;;
19127;SDS011;9696;53.686;10.094;2023-04-08T09:52:23;16.63;;;8.47;;
19127;SDS011;9696;53.686;10.094;2023-04-08T09:55:01;17.07;;;8.03;;
19127;SDS011;9696;53.686;10.094;2023-04-08T09:57:35;17.00;;;8.53;;
19127;SDS011;9696;53.686;10.094;2023-04-08T10:00:08;19.80;;;9.20;;
19127;SDS011;9696;53.686;10.094;2023-04-08T10:02:53;16.93;;;7.97;;
19127;SDS011;9696;53.686;10.094;2023-04-08T10:05:28;15.67;;;7.60;;
19127;SDS011;9696;53.686;10.094;2023-04-08T10:07:59;14.83;;;7.40;;
19127;SDS011;9696;53.686;10.094;2023-04-08T10:10:28;18.50;;;8.20;;
19127;SDS011;9696;53.686;10.094;2023-04-08T10:12:58;14.93;;;7.43;;
19127;SDS011;9696;53.686;10.094;2023-04-08T10:15:28;13.97;;;6.87;;
19127;SDS011;9696;53.686;10.094;2023-04-08T10:20:59;18.33;;;7.60;;
19127;SDS011;9696;53.686;10.094;2023-04-08T10:26:30;16.90;;;7.83;;
19127;SDS011;9696;53.686;10.094;2023-04-08T10:31:59;16.30;;;6.80;;
19127;SDS011;9696;53.686;10.094;2023-04-08T10:34:28;15.27;;;7.40;;
19127;SDS011;9696;53.686;10.094;2023-04-08T10:36:58;16.57;;;7.40;;
19127;SDS011;9696;53.686;10.094;2023-04-08T10:39:29;15.90;;;7.07;;
19127;SDS011;9696;53.686;10.094;2023-04-08T10:42:00;13.47;;;7.17;;
19127;SDS011;9696;53.686;10.094;2023-04-08T10:44:30;14.03;;;6.67;;
19127;SDS011;9696;53.686;10.094;2023-04-08T10:46:59;18.40;;;7.07;;
19127;SDS011;9696;53.686;10.094;2023-04-08T10:49:32;14.00;;;7.70;;
19127;SDS011;9696;53.686;10.094;2023-04-08T10:52:05;17.70;;;8.17;;
19127;SDS011;9696;53.686;10.094;2023-04-08T10:54:37;17.57;;;8.10;;
19127;SDS011;9696;53.686;10.094;2023-04-08T10:57:14;18.20;;;8.27;;
19127;SDS011;9696;53.686;10.094;2023-04-08T10:59:50;18.30;;;8.53;;
19127;SDS011;9696;53.686;10.094;2023-04-08T11:02:20;22.20;;;8.50;;
19127;SDS011;9696;53.686;10.094;2023-04-08T11:04:52;13.70;;;7.43;;
19127;SDS011;9696;53.686;10.094;2023-04-08T11:07:21;18.40;;;8.13;;
19127;SDS011;9696;53.686;10.094;2023-04-08T11:09:55;17.97;;;7.70;;
19127;SDS011;9696;53.686;10.094;2023-04-08T11:12:26;16.47;;;8.17;;
19127;SDS011;9696;53.686;10.094;2023-04-08T11:14:55;17.37;;;8.60;;
19127;SDS011;9696;53.686;10.094;2023-04-08T11:17:25;16.10;;;7.80;;
19127;SDS011;9696;53.686;10.094;2023-04-08T11:19:54;18.93;;;8.33;;
19127;SDS011;9696;53.686;10.094;2023-04-08T11:22:27;15.80;;;8.50;;
19127;SDS011;9696;53.686;10.094;2023-04-08T11:25:00;16.90;;;7.97;;
19127;SDS011;9696;53.686;10.094;2023-04-08T11:27:29;23.47;;;10.63;;
19127;SDS011;9696;53.686;10.094;2023-04-08T11:29:59;20.80;;;10.40;;
19127;SDS011;9696;53.686;10.094;2023-04-08T11:32:29;18.83;;;9.60;;
19127;SDS011;9696;53.686;10.094;2023-04-08T11:34:58;17.90;;;7.87;;
19127;SDS011;9696;53.686;10.094;2023-04-08T11:37:35;15.47;;;8.07;;
19127;SDS011;9696;53.686;10.094;2023-04-08T11:40:10;17.10;;;8.90;;
19127;SDS011;9696;53.686;10.094;2023-04-08T11:42:40;17.03;;;8.37;;
19127;SDS011;9696;53.686;10.094;2023-04-08T11:45:13;18.60;;;9.00;;
19127;SDS011;9696;53.686;10.094;2023-04-08T11:47:44;21.67;;;9.33;;
19127;SDS011;9696;53.686;10.094;2023-04-08T11:50:21;17.63;;;9.07;;
19127;SDS011;9696;53.686;10.094;2023-04-08T11:52:51;17.33;;;8.07;;
19127;SDS011;9696;53.686;10.094;2023-04-08T11:55:23;12.53;;;6.63;;
19127;SDS011;9696;53.686;10.094;2023-04-08T11:57:53;14.77;;;7.80;;
19127;SDS011;9696;53.686;10.094;2023-04-08T12:00:23;27.73;;;7.43;;
19127;SDS011;9696;53.686;10.094;2023-04-08T12:02:53;14.30;;;7.33;;
19127;SDS011;9696;53.686;10.094;2023-04-08T12:05:23;14.40;;;7.13;;
19127;SDS011;9696;53.686;10.094;2023-04-08T12:07:52;12.83;;;7.03;;
19127;SDS011;9696;53.686;10.094;2023-04-08T12:10:23;13.67;;;7.77;;
19127;SDS011;9696;53.686;10.094;2023-04-08T12:12:52;17.33;;;7.77;;
19127;SDS011;9696;53.686;10.094;2023-04-08T12:15:21;14.73;;;7.93;;
19127;SDS011;9696;53.686;10.094;2023-04-08T12:17:50;17.73;;;9.20;;
19127;SDS011;9696;53.686;10.094;2023-04-08T12:20:19;24.60;;;12.60;;
19127;SDS011;9696;53.686;10.094;2023-04-08T12:22:49;51.77;;;26.77;;
19127;SDS011;9696;53.686;10.094;2023-04-08T12:25:18;22.17;;;11.57;;
19127;SDS011;9696;53.686;10.094;2023-04-08T12:27:48;13.77;;;7.53;;
19127;SDS011;9696;53.686;10.094;2023-04-08T12:30:18;12.77;;;7.53;;
19127;SDS011;9696;53.686;10.094;2023-04-08T12:32:47;16.40;;;7.70;;
19127;SDS011;9696;53.686;10.094;2023-04-08T12:35:16;25.53;;;11.10;;
19127;SDS011;9696;53.686;10.094;2023-04-08T12:37:45;21.93;;;9.97;;
19127;SDS011;9696;53.686;10.094;2023-04-08T12:40:15;14.03;;;8.23;;
19127;SDS011;9696;53.686;10.094;2023-04-08T12:42:45;15.27;;;8.00;;
19127;SDS011;9696;53.686;10.094;2023-04-08T12:45:15;21.27;;;10.80;;
19127;SDS011;9696;53.686;10.094;2023-04-08T12:47:44;15.50;;;7.80;;
19127;SDS011;9696;53.686;10.094;2023-04-08T12:50:17;17.13;;;7.77;;
19127;SDS011;9696;53.686;10.094;2023-04-08T12:52:57;19.07;;;8.40;;
19127;SDS011;9696;53.686;10.094;2023-04-08T12:55:33;18.67;;;8.67;;
19127;SDS011;9696;53.686;10.094;2023-04-08T12:58:02;20.17;;;10.20;;
19127;SDS011;9696;53.686;10.094;2023-04-08T13:00:33;25.33;;;12.87;;
19127;SDS011;9696;53.686;10.094;2023-04-08T13:03:07;27.83;;;13.63;;
19127;SDS011;9696;53.686;10.094;2023-04-08T13:05:37;15.07;;;8.97;;
19127;SDS011;9696;53.686;10.094;2023-04-08T13:08:11;14.13;;;8.80;;
19127;SDS011;9696;53.686;10.094;2023-04-08T13:10:43;25.13;;;8.87;;
19127;SDS011;9696;53.686;10.094;2023-04-08T13:13:13;20.80;;;10.07;;
19127;SDS011;9696;53.686;10.094;2023-04-08T13:15:43;23.07;;;9.40;;
19127;SDS011;9696;53.686;10.094;2023-04-08T13:18:13;14.27;;;8.37;;
19127;SDS011;9696;53.686;10.094;2023-04-08T13:20:46;17.23;;;9.07;;
19127;SDS011;9696;53.686;10.094;2023-04-08T13:23:17;17.30;;;8.43;;
19127;SDS011;9696;53.686;10.094;2023-04-08T13:25:53;15.80;;;9.03;;
19127;SDS011;9696;53.686;10.094;2023-04-08T13:28:22;17.27;;;8.20;;
19127;SDS011;9696;53.686;10.094;2023-04-08T13:30:56;18.20;;;9.30;;
19127;SDS011;9696;53.686;10.094;2023-04-08T13:33:27;15.63;;;8.90;;
19127;SDS011;9696;53.686;10.094;2023-04-08T13:35:58;16.73;;;8.83;;
19127;SDS011;9696;53.686;10.094;2023-04-08T13:38:27;25.10;;;9.90;;
19127;SDS011;9696;53.686;10.094;2023-04-08T13:40:56;19.23;;;9.20;;
19127;SDS011;9696;53.686;10.094;2023-04-08T13:43:25;15.40;;;8.43;;
19127;SDS011;9696;53.686;10.094;2023-04-08T13:45:57;16.27;;;9.40;;
19127;SDS011;9696;53.686;10.094;2023-04-08T13:48:26;27.27;;;9.43;;
19127;SDS011;9696;53.686;10.094;2023-04-08T13:50:55;18.53;;;9.57;;
19127;SDS011;9696;53.686;10.094;2023-04-08T13:53:24;18.00;;;8.93;;
19127;SDS011;9696;53.686;10.094;2023-04-08T13:55:54;19.30;;;9.37;;
19127;SDS011;9696;53.686;10.094;2023-04-08T13:58:24;18.43;;;8.73;;
19127;SDS011;9696;53.686;10.094;2023-04-08T14:00:54;15.53;;;8.63;;
19127;SDS011;9696;53.686;10.094;2023-04-08T14:03:24;14.97;;;8.67;;
19127;SDS011;9696;53.686;10.094;2023-04-08T14:05:54;17.60;;;8.80;;
19127;SDS011;9696;53.686;10.094;2023-04-08T14:08:27;20.67;;;8.70;;
19127;SDS011;9696;53.686;10.094;2023-04-08T14:10:56;18.43;;;9.63;;
19127;SDS011;9696;53.686;10.094;2023-04-08T14:13:26;17.40;;;10.00;;
19127;SDS011;9696;53.686;10.094;2023-04-08T14:15:55;17.13;;;9.20;;
19127;SDS011;9696;53.686;10.094;2023-04-08T14:18:25;15.27;;;8.53;;
19127;SDS011;9696;53.686;10.094;2023-04-08T14:20:55;17.83;;;9.00;;
19127;SDS011;9696;53.686;10.094;2023-04-08T14:23:24;15.47;;;8.30;;
19127;SDS011;9696;53.686;10.094;2023-04-08T14:25:53;17.67;;;9.43;;
19127;SDS011;9696;53.686;10.094;2023-04-08T14:28:22;19.70;;;9.37;;
19127;SDS011;9696;53.686;10.094;2023-04-08T14:30:51;15.00;;;8.60;;
19127;SDS011;9696;53.686;10.094;2023-04-08T14:33:20;14.90;;;8.30;;
19127;SDS011;9696;53.686;10.094;2023-04-08T14:35:52;14.60;;;8.13;;
19127;SDS011;9696;53.686;10.094;2023-04-08T14:38:21;13.73;;;7.90;;
19127;SDS011;9696;53.686;10.094;2023-04-08T14:40:51;15.10;;;8.03;;
19127;SDS011;9696;53.686;10.094;2023-04-08T14:43:20;16.30;;;7.73;;
19127;SDS011;9696;53.686;10.094;2023-04-08T14:45:49;19.70;;;8.57;;
19127;SDS011;9696;53.686;10.094;2023-04-08T14:48:18;14.20;;;8.30;;
19127;SDS011;9696;53.686;10.094;2023-04-08T14:50:47;17.43;;;8.27;;
19127;SDS011;9696;53.686;10.094;2023-04-08T14:53:18;14.43;;;8.37;;
19127;SDS011;9696;53.686;10.094;2023-04-08T14:55:47;19.37;;;9.37;;
19127;SDS011;9696;53.686;10.094;2023-04-08T14:58:17;13.47;;;7.93;;
19127;SDS011;9696;53.686;10.094;2023-04-08T15:00:47;21.37;;;9.10;;
19127;SDS011;9696;53.686;10.094;2023-04-08T15:03:16;17.27;;;8.90;;
19127;SDS011;9696;53.686;10.094;2023-04-08T15:05:54;24.00;;;8.23;;